sensor_id;sensor_type;location;lat;lon;timestamp;pressure;altitude;pressure_sealevel;temperature;humidity
6150;BME280;3106;42.670;23.318;2023-06-22T00:00:09;94887.31;;;20.08;93.78
6150;BME280;3106;42.670;23.318;2023-06-22T00:02:37;94889.63;;;20.16;93.78
6150;BME280;3106;42.670;23.318;2023-06-22T00:05:06;94889.63;;;20.27;95.62
6150;BME280;3106;42.670;23.318;2023-06-22T00:07:32;94883.78;;;20.28;95.90
6150;BME280;3106;42.670;23.318;2023-06-22T00:09:59;94892.34;;;20.27;96.93
6150;BME280;3106;42.670;23.318;2023-06-22T00:12:26;94881.47;;;20.23;97.01
6150;BME280;3106;42.670;23.318;2023-06-22T00:14:52;94879.53;;;20.17;95.93
6150;BME280;3106;42.670;23.318;2023-06-22T00:17:19;94883.81;;;20.11;95.05
6150;BME280;3106;42.670;23.318;2023-06-22T00:19:46;94879.16;;;20.04;94.62
6150;BME280;3106;42.670;23.318;2023-06-22T00:22:19;94880.72;;;20.02;94.49
6150;BME280;3106;42.670;23.318;2023-06-22T00:24:53;94870.25;;;19.97;94.55
6150;BME280;3106;42.670;23.318;2023-06-22T00:27:20;94863.66;;;19.94;95.46
6150;BME280;3106;42.670;23.318;2023-06-22T00:29:47;94862.50;;;19.92;96.20
6150;BME280;3106;42.670;23.318;2023-06-22T00:32:13;94859.78;;;19.92;97.33
6150;BME280;3106;42.670;23.318;2023-06-22T00:34:40;94860.94;;;19.91;97.74
6150;BME280;3106;42.670;23.318;2023-06-22T00:37:07;94866.75;;;19.89;98.25
6150;BME280;3106;42.670;23.318;2023-06-22T00:39:35;94860.56;;;19.89;98.63
6150;BME280;3106;42.670;23.318;2023-06-22T00:42:02;94856.69;;;19.86;98.99
6150;BME280;3106;42.670;23.318;2023-06-22T00:44:28;94851.63;;;19.88;98.92
6150;BME280;3106;42.670;23.318;2023-06-22T00:46:55;94852.03;;;19.87;98.94
6150;BME280;3106;42.670;23.318;2023-06-22T00:49:22;94857.06;;;19.85;98.78
6150;BME280;3106;42.670;23.318;2023-06-22T00:51:48;94859.41;;;19.80;99.01
6150;BME280;3106;42.670;23.318;2023-06-22T00:54:15;94860.56;;;19.82;98.92
6150;BME280;3106;42.670;23.318;2023-06-22T00:56:51;94866.75;;;19.79;98.64
6150;BME280;3106;42.670;23.318;2023-06-22T00:59:20;94851.66;;;19.71;98.34
6150;BME280;3106;42.670;23.318;2023-06-22T01:01:47;94859.00;;;19.74;97.96
6150;BME280;3106;42.670;23.318;2023-06-22T01:04:14;94870.25;;;19.76;97.67
6150;BME280;3106;42.670;23.318;2023-06-22T01:06:50;94880.31;;;19.79;96.75
6150;BME280;3106;42.670;23.318;2023-06-22T01:09:25;94867.94;;;19.75;96.85
6150;BME280;3106;42.670;23.318;2023-06-22T01:12:00;94867.94;;;19.75;95.37
6150;BME280;3106;42.670;23.318;2023-06-22T01:14:31;94857.47;;;19.63;95.03
6150;BME280;3106;42.670;23.318;2023-06-22T01:17:05;94868.31;;;19.59;97.91
6150;BME280;3106;42.670;23.318;2023-06-22T01:19:38;94874.91;;;19.55;99.36
6150;BME280;3106;42.670;23.318;2023-06-22T01:22:07;94867.94;;;19.57;99.43
6150;BME280;3106;42.670;23.318;2023-06-22T01:24:48;94862.50;;;19.61;98.24
6150;BME280;3106;42.670;23.318;2023-06-22T01:27:32;94874.50;;;19.67;97.18
6150;BME280;3106;42.670;23.318;2023-06-22T01:30:02;94874.50;;;19.67;97.02
6150;BME280;3106;42.670;23.318;2023-06-22T01:32:33;94871.03;;;19.66;97.57
6150;BME280;3106;42.670;23.318;2023-06-22T01:35:03;94878.78;;;19.68;97.40
6150;BME280;3106;42.670;23.318;2023-06-22T01:37:31;94877.25;;;19.63;95.63
6150;BME280;3106;42.670;23.318;2023-06-22T01:39:58;94883.41;;;19.64;96.65
6150;BME280;3106;42.670;23.318;2023-06-22T01:42:26;94881.88;;;19.66;97.98
6150;BME280;3106;42.670;23.318;2023-06-22T01:44:53;94890.81;;;19.63;98.25
6150;BME280;3106;42.670;23.318;2023-06-22T01:47:22;94885.38;;;19.56;97.57
6150;BME280;3106;42.670;23.318;2023-06-22T01:49:49;94882.28;;;19.54;98.62
6150;BME280;3106;42.670;23.318;2023-06-22T01:52:18;94881.88;;;19.45;100.00
6150;BME280;3106;42.670;23.318;2023-06-22T01:54:46;94890.38;;;19.30;100.00
6150;BME280;3106;42.670;23.318;2023-06-22T01:57:14;94891.53;;;19.32;100.00
6150;BME280;3106;42.670;23.318;2023-06-22T01:59:47;94891.13;;;19.27;100.00
6150;BME280;3106;42.670;23.318;2023-06-22T02:02:17;94899.31;;;19.34;100.00
6150;BME280;3106;42.670;23.318;2023-06-22T02:04:51;94897.34;;;19.34;100.00
6150;BME280;3106;42.670;23.318;2023-06-22T02:07:23;94902.00;;;19.37;100.00
6150;BME280;3106;42.670;23.318;2023-06-22T02:09:51;94901.22;;;19.33;99.97
6150;BME280;3106;42.670;23.318;2023-06-22T02:12:22;94903.53;;;19.28;99.77
6150;BME280;3106;42.670;23.318;2023-06-22T02:14:53;94897.31;;;19.17;100.00
6150;BME280;3106;42.670;23.318;2023-06-22T02:17:20;94899.66;;;19.25;100.00
6150;BME280;3106;42.670;23.318;2023-06-22T02:19:48;94889.59;;;19.22;100.00
6150;BME280;3106;42.670;23.318;2023-06-22T02:22:15;94890.75;;;19.21;100.00
6150;BME280;3106;42.670;23.318;2023-06-22T02:24:42;94891.16;;;19.23;100.00
6150;BME280;3106;42.670;23.318;2023-06-22T02:27:09;94886.50;;;19.20;100.00
6150;BME280;3106;42.670;23.318;2023-06-22T02:29:36;94890.31;;;19.09;100.00
6150;BME280;3106;42.670;23.318;2023-06-22T02:32:03;94884.47;;;19.03;100.00
6150;BME280;3106;42.670;23.318;2023-06-22T02:34:31;94874.41;;;19.00;100.00
6150;BME280;3106;42.670;23.318;2023-06-22T02:37:00;94874.41;;;18.93;100.00
6150;BME280;3106;42.670;23.318;2023-06-22T02:39:27;94884.03;;;18.80;100.00
6150;BME280;3106;42.670;23.318;2023-06-22T02:41:54;94882.47;;;18.76;100.00
6150;BME280;3106;42.670;23.318;2023-06-22T02:44:21;94888.63;;;18.69;100.00
6150;BME280;3106;42.670;23.318;2023-06-22T02:46:48;94886.34;;;18.75;100.00
6150;BME280;3106;42.670;23.318;2023-06-22T02:49:15;94886.28;;;18.64;100.00
6150;BME280;3106;42.670;23.318;2023-06-22T02:51:45;94894.03;;;18.66;100.00
6150;BME280;3106;42.670;23.318;2023-06-22T02:54:14;94895.59;;;18.70;100.00
6150;BME280;3106;42.670;23.318;2023-06-22T02:56:41;94892.50;;;18.65;100.00
6150;BME280;3106;42.670;23.318;2023-06-22T02:59:09;94883.97;;;18.66;99.86
6150;BME280;3106;42.670;23.318;2023-06-22T03:01:36;94886.31;;;18.71;99.70
6150;BME280;3106;42.670;23.318;2023-06-22T03:04:05;94895.66;;;18.84;99.07
6150;BME280;3106;42.670;23.318;2023-06-22T03:06:32;94894.53;;;18.92;98.79
6150;BME280;3106;42.670;23.318;2023-06-22T03:09:01;94886.41;;;18.96;98.05
6150;BME280;3106;42.670;23.318;2023-06-22T03:11:30;94892.22;;;19.01;97.78
6150;BME280;3106;42.670;23.318;2023-06-22T03:13:57;94903.88;;;19.09;97.24
6150;BME280;3106;42.670;23.318;2023-06-22T03:16:24;94910.50;;;19.18;97.10
6150;BME280;3106;42.670;23.318;2023-06-22T03:18:51;94912.44;;;19.18;96.82
6150;BME280;3106;42.670;23.318;2023-06-22T03:21:19;94912.75;;;19.06;96.61
6150;BME280;3106;42.670;23.318;2023-06-22T03:23:45;94924.38;;;19.03;97.30
6150;BME280;3106;42.670;23.318;2023-06-22T03:26:12;94923.94;;;18.97;97.92
6150;BME280;3106;42.670;23.318;2023-06-22T03:28:40;94927.75;;;18.79;99.33
6150;BME280;3106;42.670;23.318;2023-06-22T03:31:08;94920.75;;;18.74;100.00
6150;BME280;3106;42.670;23.318;2023-06-22T03:33:34;94923.88;;;18.76;100.00
6150;BME280;3106;42.670;23.318;2023-06-22T03:36:01;94927.78;;;18.86;100.00
6150;BME280;3106;42.670;23.318;2023-06-22T03:38:28;94928.22;;;18.98;100.00
6150;BME280;3106;42.670;23.318;2023-06-22T03:40:55;94931.72;;;19.02;99.99
6150;BME280;3106;42.670;23.318;2023-06-22T03:43:22;94925.91;;;19.04;99.71
6150;BME280;3106;42.670;23.318;2023-06-22T03:45:50;94933.66;;;19.12;99.65
6150;BME280;3106;42.670;23.318;2023-06-22T03:48:17;94934.50;;;19.16;99.72
6150;BME280;3106;42.670;23.318;2023-06-22T03:50:44;94939.16;;;19.23;99.46
6150;BME280;3106;42.670;23.318;2023-06-22T03:53:11;94947.28;;;19.23;99.37
6150;BME280;3106;42.670;23.318;2023-06-22T03:55:45;94958.16;;;19.33;98.70
6150;BME280;3106;42.670;23.318;2023-06-22T03:58:14;94953.13;;;19.35;98.52
6150;BME280;3106;42.670;23.318;2023-06-22T04:00:41;94938.06;;;19.38;98.29
6150;BME280;3106;42.670;23.318;2023-06-22T04:03:09;94942.28;;;19.35;98.76
6150;BME280;3106;42.670;23.318;2023-06-22T04:05:38;94953.91;;;19.32;98.98
6150;BME280;3106;42.670;23.318;2023-06-22T04:08:05;94959.34;;;19.32;98.83
6150;BME280;3106;42.670;23.318;2023-06-22T04:10:32;94951.56;;;19.31;98.69
6150;BME280;3106;42.670;23.318;2023-06-22T04:12:59;94944.25;;;19.35;98.30
6150;BME280;3106;42.670;23.318;2023-06-22T04:15:26;94933.41;;;19.45;97.62
6150;BME280;3106;42.670;23.318;2023-06-22T04:17:54;94933.41;;;19.56;97.12
6150;BME280;3106;42.670;23.318;2023-06-22T04:20:23;94932.66;;;19.69;96.77
6150;BME280;3106;42.670;23.318;2023-06-22T04:22:51;94932.66;;;19.80;96.24
6150;BME280;3106;42.670;23.318;2023-06-22T04:25:18;94920.66;;;19.91;95.28
6150;BME280;3106;42.670;23.318;2023-06-22T04:27:45;94917.94;;;20.01;95.03
6150;BME280;3106;42.670;23.318;2023-06-22T04:30:12;94916.03;;;20.02;95.07
6150;BME280;3106;42.670;23.318;2023-06-22T04:32:41;94917.97;;;20.08;95.29
6150;BME280;3106;42.670;23.318;2023-06-22T04:35:08;94923.00;;;20.10;95.30
6150;BME280;3106;42.670;23.318;2023-06-22T04:37:37;94926.84;;;20.23;95.09
6150;BME280;3106;42.670;23.318;2023-06-22T04:40:05;94930.34;;;20.27;94.88
6150;BME280;3106;42.670;23.318;2023-06-22T04:42:34;94930.34;;;20.30;93.61
6150;BME280;3106;42.670;23.318;2023-06-22T04:45:01;94928.00;;;20.36;93.59
6150;BME280;3106;42.670;23.318;2023-06-22T04:47:28;94937.66;;;20.54;92.68
6150;BME280;3106;42.670;23.318;2023-06-22T04:49:54;94929.50;;;20.61;92.08
6150;BME280;3106;42.670;23.318;2023-06-22T04:52:21;94925.56;;;20.69;91.33
6150;BME280;3106;42.670;23.318;2023-06-22T04:54:49;94931.38;;;20.82;91.02
6150;BME280;3106;42.670;23.318;2023-06-22T04:57:21;94946.16;;;20.70;91.93
6150;BME280;3106;42.670;23.318;2023-06-22T04:59:58;94953.91;;;20.75;92.12
6150;BME280;3106;42.670;23.318;2023-06-22T05:02:40;94949.25;;;20.72;91.46
6150;BME280;3106;42.670;23.318;2023-06-22T05:05:08;94944.19;;;20.74;90.52
6150;BME280;3106;42.670;23.318;2023-06-22T05:07:39;94945.75;;;20.86;89.22
6150;BME280;3106;42.670;23.318;2023-06-22T05:10:10;94940.44;;;21.43;87.27
6150;BME280;3106;42.670;23.318;2023-06-22T05:12:38;94948.59;;;23.52;78.20
6150;BME280;3106;42.670;23.318;2023-06-22T05:15:06;94940.25;;;25.23;67.62
6150;BME280;3106;42.670;23.318;2023-06-22T05:17:33;94958.84;;;26.98;61.29
6150;BME280;3106;42.670;23.318;2023-06-22T05:20:00;94952.38;;;28.49;53.24
6150;BME280;3106;42.670;23.318;2023-06-22T05:22:27;94959.88;;;29.50;48.74
6150;BME280;3106;42.670;23.318;2023-06-22T05:24:54;94966.81;;;29.85;46.96
6150;BME280;3106;42.670;23.318;2023-06-22T05:27:22;94967.88;;;30.09;46.81
6150;BME280;3106;42.670;23.318;2023-06-22T05:29:49;94968.31;;;30.47;45.03
6150;BME280;3106;42.670;23.318;2023-06-22T05:32:16;94965.38;;;31.08;43.74
6150;BME280;3106;42.670;23.318;2023-06-22T05:34:44;94977.53;;;31.64;43.01
6150;BME280;3106;42.670;23.318;2023-06-22T05:37:10;94987.13;;;32.04;41.73
6150;BME280;3106;42.670;23.318;2023-06-22T05:39:38;94983.56;;;32.04;41.74
6150;BME280;3106;42.670;23.318;2023-06-22T05:42:05;94990.78;;;32.28;40.75
6150;BME280;3106;42.670;23.318;2023-06-22T05:44:33;94995.72;;;32.15;40.31
6150;BME280;3106;42.670;23.318;2023-06-22T05:47:00;94997.97;;;31.57;41.04
6150;BME280;3106;42.670;23.318;2023-06-22T05:49:27;95000.09;;;31.71;41.36
6150;BME280;3106;42.670;23.318;2023-06-22T05:51:58;94997.56;;;32.18;40.28
6150;BME280;3106;42.670;23.318;2023-06-22T05:54:24;94978.59;;;31.48;41.89
6150;BME280;3106;42.670;23.318;2023-06-22T05:56:51;94997.63;;;31.91;40.47
6150;BME280;3106;42.670;23.318;2023-06-22T05:59:18;95003.53;;;32.08;40.13
6150;BME280;3106;42.670;23.318;2023-06-22T06:01:46;95006.53;;;31.95;40.82
6150;BME280;3106;42.670;23.318;2023-06-22T06:04:15;94999.13;;;33.07;39.12
6150;BME280;3106;42.670;23.318;2023-06-22T06:06:42;94987.47;;;33.79;37.62
6150;BME280;3106;42.670;23.318;2023-06-22T06:09:08;94999.44;;;34.57;36.66
6150;BME280;3106;42.670;23.318;2023-06-22T06:11:36;95005.59;;;34.81;36.59
6150;BME280;3106;42.670;23.318;2023-06-22T06:14:03;94988.03;;;35.24;35.11
6150;BME280;3106;42.670;23.318;2023-06-22T06:16:30;94990.38;;;35.31;34.59
6150;BME280;3106;42.670;23.318;2023-06-22T06:18:58;94981.91;;;35.20;35.05
6150;BME280;3106;42.670;23.318;2023-06-22T06:21:27;94984.16;;;36.07;33.81
6150;BME280;3106;42.670;23.318;2023-06-22T06:23:54;94979.25;;;36.53;32.82
6150;BME280;3106;42.670;23.318;2023-06-22T06:26:21;94988.13;;;37.41;31.29
6150;BME280;3106;42.670;23.318;2023-06-22T06:28:53;94990.78;;;37.77;30.86
6150;BME280;3106;42.670;23.318;2023-06-22T06:31:20;94992.38;;;37.89;30.91
6150;BME280;3106;42.670;23.318;2023-06-22T06:33:46;95000.50;;;37.92;30.59
6150;BME280;3106;42.670;23.318;2023-06-22T06:36:14;94989.06;;;35.47;32.92
6150;BME280;3106;42.670;23.318;2023-06-22T06:38:41;94989.34;;;34.74;34.53
6150;BME280;3106;42.670;23.318;2023-06-22T06:41:08;94967.28;;;35.65;33.01
6150;BME280;3106;42.670;23.318;2023-06-22T06:43:35;94972.94;;;35.76;33.16
6150;BME280;3106;42.670;23.318;2023-06-22T06:46:01;94964.50;;;35.05;34.53
6150;BME280;3106;42.670;23.318;2023-06-22T06:48:28;94958.28;;;34.13;35.54
6150;BME280;3106;42.670;23.318;2023-06-22T06:50:55;94967.66;;;33.72;36.30
6150;BME280;3106;42.670;23.318;2023-06-22T06:53:25;94967.44;;;33.61;37.12
6150;BME280;3106;42.670;23.318;2023-06-22T06:55:53;94959.06;;;33.17;37.53
6150;BME280;3106;42.670;23.318;2023-06-22T06:58:20;94950.66;;;33.03;38.04
6150;BME280;3106;42.670;23.318;2023-06-22T07:00:48;94967.09;;;33.30;38.15
6150;BME280;3106;42.670;23.318;2023-06-22T07:03:15;94962.31;;;34.12;36.65
6150;BME280;3106;42.670;23.318;2023-06-22T07:05:41;94963.72;;;34.51;35.74
6150;BME280;3106;42.670;23.318;2023-06-22T07:08:08;94963.50;;;34.54;35.06
6150;BME280;3106;42.670;23.318;2023-06-22T07:10:37;94959.97;;;35.28;34.34
6150;BME280;3106;42.670;23.318;2023-06-22T07:13:04;94967.13;;;34.60;35.63
6150;BME280;3106;42.670;23.318;2023-06-22T07:15:30;94953.31;;;35.40;35.09
6150;BME280;3106;42.670;23.318;2023-06-22T07:17:57;94964.47;;;34.65;34.96
6150;BME280;3106;42.670;23.318;2023-06-22T07:20:24;94969.50;;;34.18;36.33
6150;BME280;3106;42.670;23.318;2023-06-22T07:22:51;94971.97;;;34.31;35.83
6150;BME280;3106;42.670;23.318;2023-06-22T07:25:18;94965.66;;;33.87;37.04
6150;BME280;3106;42.670;23.318;2023-06-22T07:27:57;94958.22;;;33.40;37.61
6150;BME280;3106;42.670;23.318;2023-06-22T07:30:26;94957.16;;;33.23;37.89
6150;BME280;3106;42.670;23.318;2023-06-22T07:32:53;94954.28;;;32.62;38.93
6150;BME280;3106;42.670;23.318;2023-06-22T07:35:20;94958.81;;;32.09;39.70
6150;BME280;3106;42.670;23.318;2023-06-22T07:37:47;94956.47;;;31.48;41.00
6150;BME280;3106;42.670;23.318;2023-06-22T07:40:13;94949.06;;;30.74;42.66
6150;BME280;3106;42.670;23.318;2023-06-22T07:42:40;94946.00;;;30.72;42.99
6150;BME280;3106;42.670;23.318;2023-06-22T07:45:09;94955.44;;;29.74;44.45
6150;BME280;3106;42.670;23.318;2023-06-22T07:47:36;94954.69;;;29.18;46.21
6150;BME280;3106;42.670;23.318;2023-06-22T07:50:03;94955.34;;;29.22;46.04
6150;BME280;3106;42.670;23.318;2023-06-22T07:52:32;94949.16;;;29.82;45.32
6150;BME280;3106;42.670;23.318;2023-06-22T07:54:59;94950.19;;;29.97;45.00
6150;BME280;3106;42.670;23.318;2023-06-22T07:57:26;94954.41;;;30.11;45.06
6150;BME280;3106;42.670;23.318;2023-06-22T07:59:58;94951.03;;;29.85;45.89
6150;BME280;3106;42.670;23.318;2023-06-22T08:02:26;94939.88;;;29.89;46.51
6150;BME280;3106;42.670;23.318;2023-06-22T08:04:53;94947.63;;;29.81;46.24
6150;BME280;3106;42.670;23.318;2023-06-22T08:07:20;94932.16;;;29.75;46.79
6150;BME280;3106;42.670;23.318;2023-06-22T08:09:48;94937.13;;;29.98;46.63
6150;BME280;3106;42.670;23.318;2023-06-22T08:12:16;94927.22;;;30.49;45.74
6150;BME280;3106;42.670;23.318;2023-06-22T08:14:43;94928.84;;;31.04;44.19
6150;BME280;3106;42.670;23.318;2023-06-22T08:17:10;94934.22;;;31.25;43.88
6150;BME280;3106;42.670;23.318;2023-06-22T08:19:39;94929.00;;;31.00;44.45
6150;BME280;3106;42.670;23.318;2023-06-22T08:22:06;94931.31;;;30.84;44.86
6150;BME280;3106;42.670;23.318;2023-06-22T08:24:32;94912.75;;;31.02;44.30
6150;BME280;3106;42.670;23.318;2023-06-22T08:26:59;94929.13;;;31.50;43.84
6150;BME280;3106;42.670;23.318;2023-06-22T08:29:26;94935.63;;;31.98;42.39
6150;BME280;3106;42.670;23.318;2023-06-22T08:31:53;94927.94;;;32.02;41.84
6150;BME280;3106;42.670;23.318;2023-06-22T08:34:20;94924.53;;;32.16;41.05
6150;BME280;3106;42.670;23.318;2023-06-22T08:36:50;94920.06;;;32.09;41.78
6150;BME280;3106;42.670;23.318;2023-06-22T08:39:18;94931.97;;;31.92;43.23
6150;BME280;3106;42.670;23.318;2023-06-22T08:41:45;94930.81;;;31.75;43.90
6150;BME280;3106;42.670;23.318;2023-06-22T08:44:12;94927.66;;;31.23;43.87
6150;BME280;3106;42.670;23.318;2023-06-22T08:46:39;94935.13;;;30.86;43.97
6150;BME280;3106;42.670;23.318;2023-06-22T08:49:07;94916.31;;;30.45;44.72
6150;BME280;3106;42.670;23.318;2023-06-22T08:51:35;94924.81;;;30.69;44.89
6150;BME280;3106;42.670;23.318;2023-06-22T08:54:03;94908.59;;;30.98;44.13
6150;BME280;3106;42.670;23.318;2023-06-22T08:56:30;94921.66;;;31.24;44.40
6150;BME280;3106;42.670;23.318;2023-06-22T08:58:57;94915.50;;;31.38;43.84
6150;BME280;3106;42.670;23.318;2023-06-22T09:01:26;94911.00;;;31.49;43.81
6150;BME280;3106;42.670;23.318;2023-06-22T09:03:52;94910.81;;;31.62;43.41
6150;BME280;3106;42.670;23.318;2023-06-22T09:06:23;94905.78;;;31.60;41.71
6150;BME280;3106;42.670;23.318;2023-06-22T09:08:50;94910.88;;;31.44;42.64
6150;BME280;3106;42.670;23.318;2023-06-22T09:11:20;94895.34;;;31.46;42.12
6150;BME280;3106;42.670;23.318;2023-06-22T09:13:47;94913.91;;;31.55;41.51
6150;BME280;3106;42.670;23.318;2023-06-22T09:16:14;94916.53;;;31.67;41.43
6150;BME280;3106;42.670;23.318;2023-06-22T09:18:41;94902.66;;;31.76;40.86
6150;BME280;3106;42.670;23.318;2023-06-22T09:21:07;94913.84;;;31.91;40.78
6150;BME280;3106;42.670;23.318;2023-06-22T09:23:34;94900.22;;;31.78;40.62
6150;BME280;3106;42.670;23.318;2023-06-22T09:26:01;94904.53;;;31.70;41.19
6150;BME280;3106;42.670;23.318;2023-06-22T09:28:30;94883.72;;;30.98;39.95
6150;BME280;3106;42.670;23.318;2023-06-22T09:30:58;94905.53;;;30.20;42.60
6150;BME280;3106;42.670;23.318;2023-06-22T09:33:26;94914.31;;;30.37;43.19
6150;BME280;3106;42.670;23.318;2023-06-22T09:35:53;94916.31;;;30.36;42.82
6150;BME280;3106;42.670;23.318;2023-06-22T09:38:20;94915.50;;;30.27;43.07
6150;BME280;3106;42.670;23.318;2023-06-22T09:40:47;94915.31;;;30.61;41.69
6150;BME280;3106;42.670;23.318;2023-06-22T09:43:14;94915.66;;;30.90;41.75
6150;BME280;3106;42.670;23.318;2023-06-22T09:45:42;94910.13;;;30.81;41.37
6150;BME280;3106;42.670;23.318;2023-06-22T09:48:09;94920.25;;;31.02;41.36
6150;BME280;3106;42.670;23.318;2023-06-22T09:50:36;94907.06;;;30.97;41.85
6150;BME280;3106;42.670;23.318;2023-06-22T09:53:03;94904.59;;;31.17;41.66
6150;BME280;3106;42.670;23.318;2023-06-22T09:55:29;94902.41;;;31.56;41.21
6150;BME280;3106;42.670;23.318;2023-06-22T09:57:56;94891.28;;;31.83;40.74
6150;BME280;3106;42.670;23.318;2023-06-22T10:00:23;94895.31;;;32.06;39.92
6150;BME280;3106;42.670;23.318;2023-06-22T10:02:53;94893.25;;;32.24;40.21
6150;BME280;3106;42.670;23.318;2023-06-22T10:05:24;94886.41;;;32.43;39.82
6150;BME280;3106;42.670;23.318;2023-06-22T10:07:51;94901.06;;;32.67;38.37
6150;BME280;3106;42.670;23.318;2023-06-22T10:10:18;94893.72;;;32.79;38.63
6150;BME280;3106;42.670;23.318;2023-06-22T10:12:46;94901.19;;;32.87;38.43
6150;BME280;3106;42.670;23.318;2023-06-22T10:15:14;94897.69;;;32.87;37.33
6150;BME280;3106;42.670;23.318;2023-06-22T10:17:41;94890.41;;;32.66;38.11
6150;BME280;3106;42.670;23.318;2023-06-22T10:20:10;94883.94;;;32.69;38.94
6150;BME280;3106;42.670;23.318;2023-06-22T10:22:40;94884.88;;;32.89;38.41
6150;BME280;3106;42.670;23.318;2023-06-22T10:25:07;94891.84;;;32.99;38.51
6150;BME280;3106;42.670;23.318;2023-06-22T10:27:34;94883.38;;;33.02;36.89
6150;BME280;3106;42.670;23.318;2023-06-22T10:30:01;94890.31;;;32.98;37.00
6150;BME280;3106;42.670;23.318;2023-06-22T10:32:28;94874.03;;;32.53;37.37
6150;BME280;3106;42.670;23.318;2023-06-22T10:34:54;94889.00;;;32.14;38.06
6150;BME280;3106;42.670;23.318;2023-06-22T10:37:22;94881.31;;;32.18;37.85
6150;BME280;3106;42.670;23.318;2023-06-22T10:39:49;94875.16;;;32.14;38.48
6150;BME280;3106;42.670;23.318;2023-06-22T10:42:16;94872.22;;;31.85;39.08
6150;BME280;3106;42.670;23.318;2023-06-22T10:44:43;94867.34;;;31.71;39.23
6150;BME280;3106;42.670;23.318;2023-06-22T10:47:10;94864.44;;;31.66;39.31
6150;BME280;3106;42.670;23.318;2023-06-22T10:49:37;94868.59;;;31.52;39.70
6150;BME280;3106;42.670;23.318;2023-06-22T10:52:05;94863.34;;;31.72;39.47
6150;BME280;3106;42.670;23.318;2023-06-22T10:54:34;94861.66;;;32.07;39.17
6150;BME280;3106;42.670;23.318;2023-06-22T10:57:01;94869.13;;;31.92;38.33
6150;BME280;3106;42.670;23.318;2023-06-22T10:59:27;94859.06;;;31.71;39.14
6150;BME280;3106;42.670;23.318;2023-06-22T11:01:55;94867.50;;;31.77;39.01
6150;BME280;3106;42.670;23.318;2023-06-22T11:04:22;94859.06;;;31.62;38.21
6150;BME280;3106;42.670;23.318;2023-06-22T11:06:49;94872.00;;;31.65;38.44
6150;BME280;3106;42.670;23.318;2023-06-22T11:09:19;94849.38;;;31.67;38.48
6150;BME280;3106;42.670;23.318;2023-06-22T11:11:48;94852.78;;;32.03;38.26
6150;BME280;3106;42.670;23.318;2023-06-22T11:14:15;94858.25;;;32.12;37.67
6150;BME280;3106;42.670;23.318;2023-06-22T11:16:42;94855.88;;;31.96;37.00
6150;BME280;3106;42.670;23.318;2023-06-22T11:19:09;94857.91;;;32.28;37.35
6150;BME280;3106;42.670;23.318;2023-06-22T11:21:36;94855.22;;;32.57;36.47
6150;BME280;3106;42.670;23.318;2023-06-22T11:24:03;94843.03;;;32.64;36.67
6150;BME280;3106;42.670;23.318;2023-06-22T11:26:30;94849.13;;;32.91;35.28
6150;BME280;3106;42.670;23.318;2023-06-22T11:28:58;94845.78;;;32.64;36.11
6150;BME280;3106;42.670;23.318;2023-06-22T11:31:25;94844.56;;;32.18;37.64
6150;BME280;3106;42.670;23.318;2023-06-22T11:33:52;94836.13;;;32.12;37.77
6150;BME280;3106;42.670;23.318;2023-06-22T11:36:19;94838.75;;;32.16;37.03
6150;BME280;3106;42.670;23.318;2023-06-22T11:38:46;94836.22;;;32.27;37.60
6150;BME280;3106;42.670;23.318;2023-06-22T11:41:13;94820.59;;;32.15;37.44
6150;BME280;3106;42.670;23.318;2023-06-22T11:43:39;94834.63;;;32.02;37.76
6150;BME280;3106;42.670;23.318;2023-06-22T11:46:08;94821.56;;;31.70;37.79
6150;BME280;3106;42.670;23.318;2023-06-22T11:48:34;94832.25;;;31.86;39.08
6150;BME280;3106;42.670;23.318;2023-06-22T11:51:01;94826.50;;;31.99;38.63
6150;BME280;3106;42.670;23.318;2023-06-22T11:53:29;94823.66;;;32.08;38.17
6150;BME280;3106;42.670;23.318;2023-06-22T11:55:56;94817.38;;;32.07;38.06
6150;BME280;3106;42.670;23.318;2023-06-22T11:58:23;94816.91;;;32.18;38.26
6150;BME280;3106;42.670;23.318;2023-06-22T12:00:50;94824.25;;;32.44;37.40
6150;BME280;3106;42.670;23.318;2023-06-22T12:03:18;94836.56;;;32.43;36.03
6150;BME280;3106;42.670;23.318;2023-06-22T12:05:46;94834.22;;;32.51;36.37
6150;BME280;3106;42.670;23.318;2023-06-22T12:08:13;94828.84;;;32.47;36.50
6150;BME280;3106;42.670;23.318;2023-06-22T12:10:40;94840.28;;;32.17;37.14
6150;BME280;3106;42.670;23.318;2023-06-22T12:13:07;94835.34;;;31.79;39.79
6150;BME280;3106;42.670;23.318;2023-06-22T12:15:34;94837.50;;;30.98;41.61
6150;BME280;3106;42.670;23.318;2023-06-22T12:18:00;94842.16;;;30.83;41.71
6150;BME280;3106;42.670;23.318;2023-06-22T12:20:29;94826.34;;;30.66;42.69
6150;BME280;3106;42.670;23.318;2023-06-22T12:22:56;94832.78;;;30.54;43.34
6150;BME280;3106;42.670;23.318;2023-06-22T12:25:23;94830.41;;;30.25;45.12
6150;BME280;3106;42.670;23.318;2023-06-22T12:27:51;94825.56;;;29.90;46.94
6150;BME280;3106;42.670;23.318;2023-06-22T12:30:19;94842.69;;;29.76;48.24
6150;BME280;3106;42.670;23.318;2023-06-22T12:32:46;94856.19;;;29.01;50.42
6150;BME280;3106;42.670;23.318;2023-06-22T12:35:12;94858.38;;;28.50;53.55
6150;BME280;3106;42.670;23.318;2023-06-22T12:37:42;94857.69;;;28.00;55.19
6150;BME280;3106;42.670;23.318;2023-06-22T12:40:10;94867.06;;;27.78;58.69
6150;BME280;3106;42.670;23.318;2023-06-22T12:42:37;94870.13;;;27.55;61.86
6150;BME280;3106;42.670;23.318;2023-06-22T12:45:05;94867.03;;;27.53;63.15
6150;BME280;3106;42.670;23.318;2023-06-22T12:47:32;94862.75;;;27.39;66.74
6150;BME280;3106;42.670;23.318;2023-06-22T12:49:59;94880.84;;;27.37;67.54
6150;BME280;3106;42.670;23.318;2023-06-22T12:52:30;94871.31;;;27.41;68.06
6150;BME280;3106;42.670;23.318;2023-06-22T12:54:58;94894.22;;;27.22;68.25
6150;BME280;3106;42.670;23.318;2023-06-22T12:57:25;94890.91;;;27.15;69.02
6150;BME280;3106;42.670;23.318;2023-06-22T12:59:51;94879.31;;;26.95;69.38
6150;BME280;3106;42.670;23.318;2023-06-22T13:02:18;94881.47;;;26.87;68.37
6150;BME280;3106;42.670;23.318;2023-06-22T13:04:45;94881.72;;;26.93;68.93
6150;BME280;3106;42.670;23.318;2023-06-22T13:07:12;94885.97;;;27.10;70.87
6150;BME280;3106;42.670;23.318;2023-06-22T13:09:38;94878.31;;;27.17;73.62
6150;BME280;3106;42.670;23.318;2023-06-22T13:12:08;94876.25;;;27.34;73.87